Time;durP1;ratioP1;P1;durP2;ratioP2;P2;SDS_P1;SDS_P2;PMS_P1;PMS_P2;Temp;Humidity;BMP_temperature;BMP_pressure;BME280_temperature;BME280_humidity;BME280_pressure;Samples;Min_cycle;Max_cycle;Signal;HPM_P1;HPM_P2
2023/05/31 00:02:07;;;;;;;2.27;1.13;;;;;;;16.08;58.48;95718.75;4349607;32;20418;-67
2023/05/31 00:04:32;;;;;;;1.37;1.20;;;;;;;16.08;57.85;95720.62;4365709;32;20216;-67
2023/05/31 00:06:58;;;;;;;0.83;0.83;;;;;;;16.02;58.20;95720.00;4361625;32;20201;-66
2023/05/31 00:09:23;;;;;;;3.37;1.07;;;;;;;15.97;57.62;95722.88;4367768;32;20235;-67
2023/05/31 00:11:48;;;;;;;0.70;0.70;;;;;;;15.98;58.44;95721.00;4364071;32;20300;-67
2023/05/31 00:14:13;;;;;;;1.33;1.20;;;;;;;15.98;56.55;95718.31;4359967;32;20241;-67
2023/05/31 00:16:39;;;;;;;0.53;0.53;;;;;;;15.96;56.24;95713.28;4366931;32;20215;-66
2023/05/31 00:19:04;;;;;;;1.40;1.13;;;;;;;15.94;56.34;95712.00;4360892;32;20239;-67
2023/05/31 00:21:30;;;;;;;0.63;0.63;;;;;;;15.82;56.24;95716.09;4352699;32;20177;-67
2023/05/31 00:23:55;;;;;;;1.73;1.60;;;;;;;15.84;56.38;95713.12;4360675;32;20201;-67
2023/05/31 00:26:22;;;;;;;1.03;1.03;;;;;;;15.74;56.64;95719.59;4352163;32;20256;-67
2023/05/31 00:28:47;;;;;;;0.70;0.70;;;;;;;15.78;56.26;95704.50;4357831;32;20290;-66
2023/05/31 00:31:13;;;;;;;1.50;1.00;;;;;;;15.76;56.95;95716.59;4358514;32;20209;-66
2023/05/31 00:33:38;;;;;;;0.70;0.70;;;;;;;15.78;55.65;95709.84;4360037;32;20219;-67
2023/05/31 00:36:04;;;;;;;1.50;1.33;;;;;;;15.74;55.89;95716.91;4368219;32;20204;-67
2023/05/31 00:38:29;;;;;;;1.20;0.83;;;;;;;15.80;56.21;95714.84;4373727;32;20240;-67
2023/05/31 00:40:54;;;;;;;1.03;1.03;;;;;;;15.75;55.13;95710.47;4361519;32;20226;-67
2023/05/31 00:43:20;;;;;;;1.43;1.37;;;;;;;15.74;54.86;95710.78;4370132;32;20181;-67
2023/05/31 00:45:45;;;;;;;2.17;1.20;;;;;;;15.74;54.59;95706.22;4366766;32;20201;-67
2023/05/31 00:48:11;;;;;;;1.20;0.83;;;;;;;15.78;54.33;95709.06;4350849;32;20257;-67
2023/05/31 00:50:37;;;;;;;0.47;0.47;;;;;;;15.72;54.24;95708.41;4356237;32;20268;-67
2023/05/31 00:53:03;;;;;;;0.90;0.90;;;;;;;15.76;53.68;95706.69;4367462;32;20188;-67
2023/05/31 00:55:31;;;;;;;1.40;1.30;;;;;;;15.68;54.72;95715.50;4375171;32;20201;-67
2023/05/31 00:57:57;;;;;;;0.90;0.90;;;;;;;15.76;53.58;95713.94;4379833;32;20215;-67
2023/05/31 01:00:23;;;;;;;0.47;0.47;;;;;;;15.70;54.35;95715.97;4370741;32;20236;-67
2023/05/31 01:02:50;;;;;;;3.97;0.83;;;;;;;15.66;54.19;95711.56;4357762;32;20226;-67
2023/05/31 01:05:16;;;;;;;1.33;1.17;;;;;;;15.69;53.80;95703.69;4364781;32;20226;-64
2023/05/31 01:07:41;;;;;;;1.00;1.00;;;;;;;15.55;54.48;95721.78;4370002;32;20180;-67
2023/05/31 01:10:07;;;;;;;1.23;1.03;;;;;;;15.77;53.59;95721.62;4366991;32;20197;-67
2023/05/31 01:13:08;;;;;;;1.00;1.00;;;;;;;15.65;53.26;95724.16;4359782;32;20192;-67
2023/05/31 01:15:45;;;;;;;0.77;0.77;;;;;;;15.61;53.41;95725.87;4340717;32;20189;-67
2023/05/31 01:18:25;;;;;;;4.80;1.60;;;;;;;15.71;53.84;95716.75;4346188;32;20189;-67
2023/05/31 01:20:53;;;;;;;0.83;0.83;;;;;;;15.67;53.69;95724.63;4350061;32;20281;-67
2023/05/31 01:23:37;;;;;;;2.10;1.13;;;;;;;15.70;53.58;95724.00;4361615;32;20192;-67
2023/05/31 01:26:28;;;;;;;0.60;0.60;;;;;;;15.68;55.02;95723.53;4351184;32;20190;-67
2023/05/31 01:28:57;;;;;;;0.67;0.67;;;;;;;15.62;54.50;95722.09;4356353;32;20190;-67
2023/05/31 01:31:23;;;;;;;0.97;0.97;;;;;;;15.56;53.72;95712.69;4359741;32;20212;-67
2023/05/31 01:33:50;;;;;;;5.33;0.97;;;;;;;15.62;55.76;95716.75;4358445;32;20199;-67
2023/05/31 01:36:15;;;;;;;2.80;1.43;;;;;;;15.51;53.20;95712.78;4357660;32;20193;-67
2023/05/31 01:38:41;;;;;;;0.70;0.70;;;;;;;15.52;52.91;95714.38;4361248;32;20249;-67
2023/05/31 01:41:08;;;;;;;0.73;0.73;;;;;;;15.48;55.69;95713.41;4358432;32;20268;-67
2023/05/31 01:43:36;;;;;;;0.87;0.87;;;;;;;15.42;53.30;95717.34;4366395;32;20246;-67
2023/05/31 01:46:03;;;;;;;0.37;0.37;;;;;;;15.48;57.30;95716.87;4349963;32;20197;-67
2023/05/31 01:48:29;;;;;;;0.50;0.50;;;;;;;15.61;56.51;95711.72;4339552;32;20189;-67
2023/05/31 01:50:57;;;;;;;1.40;1.10;;;;;;;15.47;55.34;95701.94;4353823;32;20210;-67
2023/05/31 01:53:23;;;;;;;3.33;1.30;;;;;;;15.51;53.27;95707.44;4342670;32;20193;-66
2023/05/31 01:55:48;;;;;;;0.63;0.63;;;;;;;15.45;53.44;95709.50;4363379;32;20208;-67
2023/05/31 01:58:16;;;;;;;0.70;0.70;;;;;;;15.55;55.21;95700.38;4362627;32;20241;-67
2023/05/31 02:00:42;;;;;;;1.10;1.10;;;;;;;15.62;55.02;95710.63;4364631;32;20193;-66
2023/05/31 02:03:07;;;;;;;0.77;0.77;;;;;;;15.67;56.16;95710.47;4353266;32;20231;-66
2023/05/31 02:05:33;;;;;;;0.93;0.93;;;;;;;15.48;53.58;95706.19;4361060;32;20279;-67
2023/05/31 02:07:58;;;;;;;0.77;0.77;;;;;;;15.42;53.87;95712.00;4356844;32;20197;-66
2023/05/31 02:10:24;;;;;;;0.87;0.87;;;;;;;15.45;55.30;95711.38;4364569;32;20192;-67
2023/05/31 02:12:50;;;;;;;2.10;1.77;;;;;;;15.35;53.25;95709.03;4368940;32;20185;-67
2023/05/31 02:15:19;;;;;;;0.57;0.57;;;;;;;15.55;57.40;95707.63;4347607;32;20185;-67
2023/05/31 02:17:46;;;;;;;1.17;0.70;;;;;;;15.37;56.77;95702.25;4364821;32;20193;-67
2023/05/31 02:20:14;;;;;;;1.00;1.00;;;;;;;15.33;54.11;95708.53;4358438;32;20212;-67
2023/05/31 02:22:44;;;;;;;0.53;0.37;;;;;;;15.46;54.91;95712.94;4363431;32;20241;-67
2023/05/31 02:25:11;;;;;;;0.67;0.67;;;;;;;15.58;55.14;95715.03;4369934;32;20196;-67
2023/05/31 02:27:37;;;;;;;0.40;0.40;;;;;;;15.75;58.40;95707.00;4356313;32;21503;-67
2023/05/31 02:30:04;;;;;;;0.50;0.50;;;;;;;15.65;55.58;95707.31;4344967;32;20253;-67
2023/05/31 02:32:31;;;;;;;3.40;1.13;;;;;;;15.52;55.58;95709.03;4364297;32;20197;-67
2023/05/31 02:34:56;;;;;;;0.73;0.73;;;;;;;15.52;52.91;95706.34;4350800;32;20212;-66
2023/05/31 02:37:21;;;;;;;0.50;0.50;;;;;;;15.33;54.69;95713.91;4361135;32;20197;-67
2023/05/31 02:39:48;;;;;;;0.50;0.50;;;;;;;15.47;56.51;95707.28;4360608;32;20186;-66
2023/05/31 02:42:14;;;;;;;1.50;1.40;;;;;;;15.67;59.60;95707.78;4348139;32;20184;-67
2023/05/31 02:44:39;;;;;;;0.70;0.70;;;;;;;15.49;53.71;95698.94;4356108;32;20282;-67
2023/05/31 02:47:05;;;;;;;0.60;0.60;;;;;;;15.17;55.25;95704.75;4367283;32;20208;-68
2023/05/31 02:49:30;;;;;;;0.50;0.50;;;;;;;15.27;55.87;95707.12;4354736;32;20284;-67
2023/05/31 02:51:55;;;;;;;0.73;0.70;;;;;;;15.37;57.81;95698.81;4364045;32;20298;-67
2023/05/31 02:54:21;;;;;;;2.13;0.93;;;;;;;15.33;55.26;95700.53;4365465;32;20205;-67
2023/05/31 02:56:47;;;;;;;0.70;0.70;;;;;;;15.28;56.73;95700.69;4356497;32;20245;-66
2023/05/31 02:59:12;;;;;;;0.80;0.80;;;;;;;15.40;57.62;95698.16;4380060;32;20223;-67
2023/05/31 03:01:37;;;;;;;1.20;1.10;;;;;;;15.25;55.33;95702.09;4366453;32;20192;-67
2023/05/31 03:04:03;;;;;;;0.70;0.70;;;;;;;15.13;55.86;95704.59;4345753;32;20189;-67
2023/05/31 03:06:28;;;;;;;1.23;1.13;;;;;;;15.21;58.75;95708.34;4364787;32;20193;-67
2023/05/31 03:08:53;;;;;;;1.03;1.03;;;;;;;15.23;59.08;95706.16;4363758;32;20212;-66
2023/05/31 03:11:19;;;;;;;0.60;0.60;;;;;;;15.30;55.39;95701.94;4368122;32;20196;-66
2023/05/31 03:13:44;;;;;;;0.63;0.60;;;;;;;15.43;59.01;95703.66;4364773;32;20208;-67
2023/05/31 03:16:09;;;;;;;0.30;0.30;;;;;;;15.60;61.14;95708.25;4367905;32;20215;-67
2023/05/31 03:18:35;;;;;;;0.50;0.50;;;;;;;15.46;57.16;95707.59;4346542;32;20248;-67
2023/05/31 03:21:00;;;;;;;0.87;0.87;;;;;;;15.38;57.38;95713.75;4359197;32;20254;-67
2023/05/31 03:23:25;;;;;;;0.57;0.57;;;;;;;15.13;54.75;95715.28;4365416;32;20215;-67
2023/05/31 03:25:51;;;;;;;0.20;0.20;;;;;;;15.05;57.53;95713.38;4373336;32;20192;-67
2023/05/31 03:28:16;;;;;;;0.70;0.70;;;;;;;15.06;54.98;95717.63;4364279;32;20189;-67
2023/05/31 03:30:41;;;;;;;2.13;1.17;;;;;;;15.09;54.36;95712.44;4341195;32;20251;-67
2023/05/31 03:33:07;;;;;;;0.50;0.50;;;;;;;14.92;55.03;95715.09;4356536;32;20300;-67
2023/05/31 03:35:33;;;;;;;5.17;1.00;;;;;;;15.00;58.67;95716.19;4366695;32;20338;-67
2023/05/31 03:37:58;;;;;;;1.20;1.10;;;;;;;15.05;59.50;95724.84;4367257;32;20196;-67
2023/05/31 03:40:23;;;;;;;0.77;0.43;;;;;;;15.01;56.13;95718.53;4361764;32;20207;-66
2023/05/31 03:42:49;;;;;;;1.47;0.70;;;;;;;14.94;55.84;95723.56;4355874;32;20226;-66
2023/05/31 03:45:14;;;;;;;0.60;0.60;;;;;;;14.87;55.36;95720.56;4372750;32;20190;-67
2023/05/31 03:47:40;;;;;;;1.10;1.10;;;;;;;14.84;55.26;95725.72;4368747;32;20206;-66
2023/05/31 03:50:06;;;;;;;1.03;1.03;;;;;;;14.84;56.41;95725.72;4357764;32;20212;-66
2023/05/31 03:52:32;;;;;;;0.70;0.70;;;;;;;14.92;55.48;95730.31;4368717;32;20204;-67
2023/05/31 03:54:57;;;;;;;0.73;0.73;;;;;;;14.79;56.39;95737.34;4353267;32;20237;-67
2023/05/31 03:57:23;;;;;;;0.80;0.80;;;;;;;14.53;55.66;95733.81;4363926;32;20204;-66
2023/05/31 03:59:48;;;;;;;0.67;0.67;;;;;;;14.42;55.67;95734.06;4349637;32;20196;-66
2023/05/31 04:02:14;;;;;;;0.97;0.97;;;;;;;14.45;55.91;95738.00;4363581;32;20193;-67
2023/05/31 04:04:39;;;;;;;0.30;0.30;;;;;;;14.42;55.83;95734.06;4377378;32;20211;-67
2023/05/31 04:07:05;;;;;;;0.50;0.50;;;;;;;14.35;56.19;95732.87;4361679;32;20228;-67
2023/05/31 04:09:30;;;;;;;0.83;0.83;;;;;;;14.28;56.48;95732.53;4363429;32;20236;-67
2023/05/31 04:11:56;;;;;;;1.10;1.10;;;;;;;14.40;56.97;95730.91;4353189;32;20194;-67
2023/05/31 04:14:21;;;;;;;1.07;1.07;;;;;;;14.34;56.64;95734.00;4362680;32;20310;-66
2023/05/31 04:16:47;;;;;;;0.43;0.43;;;;;;;14.35;56.34;95725.66;4376081;32;20193;-67
2023/05/31 04:19:12;;;;;;;0.87;0.77;;;;;;;14.31;56.35;95732.72;4369943;32;20196;-67
2023/05/31 04:21:38;;;;;;;0.70;0.70;;;;;;;14.32;59.18;95728.97;4374671;32;20253;-67
2023/05/31 04:24:03;;;;;;;2.70;0.93;;;;;;;14.38;57.11;95727.72;4351299;32;20185;-67
2023/05/31 04:26:31;;;;;;;2.83;1.27;;;;;;;14.43;56.22;95740.19;4352455;32;20189;-67
2023/05/31 04:28:57;;;;;;;1.00;1.00;;;;;;;14.28;56.42;95733.34;4370506;32;20417;-67
2023/05/31 04:31:28;;;;;;;0.43;0.43;;;;;;;14.35;58.71;95736.34;4359113;32;20205;-66
2023/05/31 04:33:56;;;;;;;0.37;0.37;;;;;;;14.42;56.87;95736.72;4365347;32;20213;-67
2023/05/31 04:36:25;;;;;;;0.87;0.87;;;;;;;14.72;60.14;95737.03;4348880;32;20197;-66
2023/05/31 04:38:51;;;;;;;1.67;1.10;;;;;;;14.64;57.79;95732.41;4367988;32;20282;-67
2023/05/31 04:41:16;;;;;;;0.90;0.90;;;;;;;14.65;57.92;95742.78;4358860;32;20193;-67
2023/05/31 04:43:42;;;;;;;0.97;0.97;;;;;;;14.85;59.02;95740.66;4356330;32;20201;-67
2023/05/31 04:46:09;;;;;;;1.13;1.03;;;;;;;14.99;57.24;95736.78;4361268;32;20264;-67
2023/05/31 04:48:35;;;;;;;2.30;1.43;;;;;;;14.83;57.17;95737.50;4352191;32;20201;-67
2023/05/31 04:51:00;;;;;;;0.53;0.53;;;;;;;14.79;56.05;95732.00;4362816;32;20219;-67
2023/05/31 04:53:25;;;;;;;0.87;0.87;;;;;;;14.79;55.99;95729.31;4360074;32;20182;-66
2023/05/31 04:55:51;;;;;;;1.17;1.17;;;;;;;14.69;56.15;95737.62;4360409;32;20200;-66
2023/05/31 04:58:17;;;;;;;0.67;0.67;;;;;;;14.67;58.61;95729.94;4358601;32;20231;-67
2023/05/31 05:00:42;;;;;;;0.83;0.83;;;;;;;14.51;58.03;95736.78;4359813;32;20193;-67
2023/05/31 05:03:07;;;;;;;1.03;1.03;;;;;;;14.60;57.75;95739.47;4367971;32;20229;-67
2023/05/31 05:05:33;;;;;;;0.67;0.67;;;;;;;14.64;57.42;95746.56;4354850;32;20204;-67
2023/05/31 05:07:58;;;;;;;0.70;0.70;;;;;;;14.65;57.84;95744.69;4366783;32;20231;-66
2023/05/31 05:10:24;;;;;;;1.03;1.03;;;;;;;14.60;59.81;95755.50;4362977;32;20197;-67
2023/05/31 05:12:49;;;;;;;0.70;0.70;;;;;;;14.83;59.92;95743.66;4346325;32;20220;-66
2023/05/31 05:15:14;;;;;;;14.23;1.83;;;;;;;14.81;58.08;95750.38;4366370;32;20236;-67
2023/05/31 05:17:41;;;;;;;0.47;0.47;;;;;;;14.90;57.34;95751.22;4363677;32;20197;-67
2023/05/31 05:20:10;;;;;;;1.10;0.73;;;;;;;15.03;57.25;95745.75;4367119;32;20185;-67
2023/05/31 05:22:35;;;;;;;0.80;0.80;;;;;;;14.90;56.03;95754.69;4364053;32;20185;-67
2023/05/31 05:25:01;;;;;;;0.70;0.70;;;;;;;14.83;57.49;95751.66;4355265;32;20197;-67
2023/05/31 05:27:26;;;;;;;1.37;0.80;;;;;;;15.03;59.91;95751.09;4364440;32;20233;-67
2023/05/31 05:29:52;;;;;;;4.00;0.87;;;;;;;14.90;56.97;95749.34;4358798;32;20201;-67
2023/05/31 05:32:17;;;;;;;0.80;0.80;;;;;;;14.99;56.40;95755.47;4369123;32;20181;-67
2023/05/31 05:34:43;;;;;;;10.43;1.70;;;;;;;15.07;56.20;95749.38;4355208;32;20194;-67
2023/05/31 05:37:09;;;;;;;0.67;0.67;;;;;;;14.90;56.78;95749.34;4364100;32;20212;-67
2023/05/31 05:39:34;;;;;;;0.97;0.97;;;;;;;15.12;57.32;95757.25;4360989;32;20248;-67
2023/05/31 05:42:01;;;;;;;1.30;1.23;;;;;;;15.16;55.89;95745.94;4369210;32;20197;-67
2023/05/31 05:44:26;;;;;;;0.80;0.80;;;;;;;15.26;55.83;95746.44;4359492;32;20217;-67
2023/05/31 05:46:52;;;;;;;0.73;0.73;;;;;;;15.30;56.17;95747.37;4349598;32;20197;-66
2023/05/31 05:49:17;;;;;;;0.67;0.67;;;;;;;15.33;55.97;95745.97;4361324;32;20240;-63
2023/05/31 05:51:43;;;;;;;0.80;0.80;;;;;;;15.34;56.38;95747.56;4349709;32;20239;-67
2023/05/31 05:54:08;;;;;;;0.63;0.63;;;;;;;15.43;55.49;95745.66;4362042;32;20212;-67
2023/05/31 05:56:33;;;;;;;1.10;1.10;;;;;;;15.37;55.61;95746.94;4377684;32;20197;-66
2023/05/31 05:58:59;;;;;;;0.60;0.60;;;;;;;15.37;55.64;95747.72;4367365;32;20207;-67
2023/05/31 06:01:26;;;;;;;0.43;0.43;;;;;;;15.53;57.16;95739.22;4365550;32;20202;-66
2023/05/31 06:03:52;;;;;;;1.80;1.17;;;;;;;15.66;55.81;95743.66;4364580;32;20266;-67
2023/05/31 06:06:18;;;;;;;2.33;1.80;;;;;;;15.66;54.55;95747.13;4359872;32;20295;-66
2023/05/31 06:08:45;;;;;;;0.70;0.70;;;;;;;15.80;55.43;95747.72;4364683;32;20192;-67
2023/05/31 06:11:10;;;;;;;1.87;1.00;;;;;;;15.86;54.61;95748.37;4347621;32;20202;-67
2023/05/31 06:13:36;;;;;;;0.93;0.93;;;;;;;15.99;54.54;95744.75;4350273;32;20209;-67
2023/05/31 06:16:03;;;;;;;1.00;1.00;;;;;;;16.12;54.64;95746.47;4355309;32;20185;-67
2023/05/31 06:18:28;;;;;;;0.90;0.90;;;;;;;16.30;52.99;95746.41;4359771;32;20286;-67
2023/05/31 06:20:55;;;;;;;0.80;0.80;;;;;;;16.28;53.14;95751.31;4341158;32;20193;-67
2023/05/31 06:23:20;;;;;;;0.73;0.73;;;;;;;16.42;52.82;95751.88;4345668;32;20190;-67
2023/05/31 06:25:46;;;;;;;0.40;0.40;;;;;;;16.42;52.86;95755.34;4343338;32;20192;-67
2023/05/31 06:28:11;;;;;;;8.40;0.93;;;;;;;16.52;52.34;95748.09;4346131;32;20220;-67
2023/05/31 06:30:36;;;;;;;0.33;0.33;;;;;;;16.55;52.37;95750.13;4349851;32;20194;-67
2023/05/31 06:33:02;;;;;;;1.83;1.03;;;;;;;16.54;52.02;95752.03;4346394;32;20200;-67
2023/05/31 06:35:27;;;;;;;0.97;0.97;;;;;;;16.68;52.74;95760.66;4352986;32;20185;-67
2023/05/31 06:37:52;;;;;;;1.50;1.13;;;;;;;16.74;52.26;95755.94;4348110;32;20204;-66
2023/05/31 06:40:18;;;;;;;0.37;0.37;;;;;;;16.76;52.35;95759.88;4348966;32;20193;-65
2023/05/31 06:42:43;;;;;;;2.20;1.80;;;;;;;16.95;52.08;95764.81;4368398;32;20261;-66
2023/05/31 06:45:09;;;;;;;0.83;0.83;;;;;;;16.98;51.82;95766.06;4341180;32;20213;-67
2023/05/31 06:47:34;;;;;;;1.07;0.97;;;;;;;17.01;51.58;95760.88;4341051;32;20219;-67
2023/05/31 06:50:00;;;;;;;0.90;0.90;;;;;;;17.15;51.46;95760.63;4346231;32;20213;-66
2023/05/31 06:52:25;;;;;;;1.90;1.00;;;;;;;17.22;51.70;95755.53;4346877;32;20189;-66
2023/05/31 06:54:51;;;;;;;0.77;0.77;;;;;;;17.32;51.47;95762.41;4350624;32;20246;-66
2023/05/31 06:57:17;;;;;;;0.83;0.83;;;;;;;17.27;51.81;95758.00;4363978;32;20200;-67
2023/05/31 06:59:42;;;;;;;0.77;0.60;;;;;;;17.38;51.62;95753.06;4354708;32;20190;-66
2023/05/31 07:02:08;;;;;;;0.50;0.40;;;;;;;17.55;51.04;95755.63;4357724;32;20304;-66
2023/05/31 07:04:34;;;;;;;1.53;0.80;;;;;;;17.53;51.21;95750.59;4349121;32;20196;-67
2023/05/31 07:06:59;;;;;;;1.10;1.00;;;;;;;17.66;50.76;95738.09;4346120;32;20224;-66
2023/05/31 07:09:25;;;;;;;0.53;0.37;;;;;;;17.89;50.33;95740.41;4366991;32;20189;-66
2023/05/31 07:11:50;;;;;;;1.07;1.03;;;;;;;18.13;49.51;95743.97;4366161;32;20203;-66
2023/05/31 07:14:15;;;;;;;1.60;0.73;;;;;;;18.26;49.23;95744.81;4353525;32;20226;-67
2023/05/31 07:16:40;;;;;;;0.50;0.50;;;;;;;18.26;49.28;95744.81;4363306;32;20232;-66
2023/05/31 07:19:06;;;;;;;1.83;1.13;;;;;;;18.23;49.19;95745.47;4365571;32;20189;-66
2023/05/31 07:21:32;;;;;;;0.57;0.57;;;;;;;18.17;50.06;95741.41;4360845;32;20181;-66
2023/05/31 07:23:57;;;;;;;0.77;0.77;;;;;;;18.25;49.07;95748.59;4355198;32;20192;-66
2023/05/31 07:26:23;;;;;;;0.43;0.40;;;;;;;18.13;49.72;95745.88;4360602;32;20235;-67
2023/05/31 07:28:52;;;;;;;0.90;0.90;;;;;;;18.27;49.13;95742.91;4358095;32;20212;-66
2023/05/31 07:31:18;;;;;;;0.97;0.97;;;;;;;18.20;49.62;95740.75;4355807;32;20204;-62
2023/05/31 07:33:44;;;;;;;1.33;0.63;;;;;;;18.30;49.32;95739.53;4367694;32;20196;-66
2023/05/31 07:36:09;;;;;;;1.03;0.80;;;;;;;18.39;48.94;95740.25;4362885;32;20206;-67
2023/05/31 07:38:35;;;;;;;0.87;0.87;;;;;;;18.34;49.57;95746.59;4370751;32;20193;-67
2023/05/31 07:41:00;;;;;;;1.37;1.23;;;;;;;18.42;48.84;95742.25;4367888;32;20201;-66
2023/05/31 07:43:26;;;;;;;0.73;0.73;;;;;;;18.37;49.27;95745.94;4363264;32;20200;-66
2023/05/31 07:45:54;;;;;;;5.43;1.23;;;;;;;18.49;48.82;95745.97;4354156;32;20236;-66
2023/05/31 07:48:20;;;;;;;0.63;0.63;;;;;;;18.50;48.78;95744.06;4370399;32;20203;-66
2023/05/31 07:50:46;;;;;;;0.93;0.80;;;;;;;18.49;48.83;95732.56;4353987;32;20207;-67
2023/05/31 07:53:12;;;;;;;1.70;0.97;;;;;;;18.53;48.51;95744.19;4361492;32;20184;-67
2023/05/31 07:55:38;;;;;;;2.40;1.27;;;;;;;18.49;48.88;95732.56;4362049;32;20267;-66
2023/05/31 07:58:03;;;;;;;1.30;1.20;;;;;;;18.57;48.29;95738.94;4361417;32;20224;-66
2023/05/31 08:00:29;;;;;;;1.40;1.03;;;;;;;18.60;48.06;95734.81;4355797;32;20209;-67
2023/05/31 08:02:54;;;;;;;1.27;1.17;;;;;;;18.58;48.54;95737.03;4360033;32;20236;-67
2023/05/31 08:05:20;;;;;;;0.70;0.70;;;;;;;18.63;47.57;95729.56;4366031;32;20197;-66
2023/05/31 08:07:47;;;;;;;1.97;1.20;;;;;;;18.59;47.61;95730.53;4368138;32;20245;-67
2023/05/31 08:10:12;;;;;;;1.40;1.30;;;;;;;18.70;47.36;95726.34;4355528;32;20190;-67
2023/05/31 08:12:37;;;;;;;0.70;0.70;;;;;;;18.82;47.00;95721.75;4360993;32;20314;-67
2023/05/31 08:15:03;;;;;;;2.17;1.07;;;;;;;18.88;46.84;95727.69;4358865;32;20267;-67
2023/05/31 08:17:29;;;;;;;1.70;0.53;;;;;;;18.92;46.66;95720.50;4357848;32;20197;-67
2023/05/31 08:19:54;;;;;;;0.70;0.70;;;;;;;19.00;46.66;95718.81;4354763;32;20200;-66
2023/05/31 08:22:20;;;;;;;0.97;0.97;;;;;;;19.05;46.74;95732.84;4366528;32;20201;-66
2023/05/31 08:24:45;;;;;;;1.63;0.77;;;;;;;19.10;46.54;95718.37;4362544;32;20241;-67
2023/05/31 08:27:11;;;;;;;0.90;0.90;;;;;;;19.21;45.59;95724.84;4353922;32;20212;-67
2023/05/31 08:29:36;;;;;;;1.00;1.00;;;;;;;19.24;45.32;95724.19;4353328;32;20299;-67
2023/05/31 08:32:01;;;;;;;1.30;1.20;;;;;;;19.15;45.40;95720.81;4352895;32;20292;-66
2023/05/31 08:34:27;;;;;;;1.53;1.43;;;;;;;19.20;44.83;95712.53;4373176;32;20225;-66
2023/05/31 08:36:52;;;;;;;0.93;0.77;;;;;;;19.28;45.00;95713.53;4371528;32;20231;-66
2023/05/31 08:39:18;;;;;;;0.30;0.30;;;;;;;19.33;44.85;95714.06;4370161;32;20192;-62
2023/05/31 08:41:53;;;;;;;1.27;0.90;;;;;;;19.33;44.36;95713.31;4362753;32;20235;-67
2023/05/31 08:44:20;;;;;;;0.60;0.60;;;;;;;19.20;45.34;95707.94;4367370;32;20207;-66
2023/05/31 08:46:47;;;;;;;1.60;1.17;;;;;;;19.31;45.32;95712.88;4356386;32;20189;-67
2023/05/31 08:49:15;;;;;;;0.97;0.87;;;;;;;19.34;44.21;95712.16;4363375;32;20196;-66
2023/05/31 08:51:44;;;;;;;0.40;0.40;;;;;;;19.34;44.63;95709.47;4359060;32;20188;-66
2023/05/31 08:54:10;;;;;;;0.60;0.60;;;;;;;19.44;43.88;95701.72;4353325;32;20193;-67
2023/05/31 08:56:38;;;;;;;0.60;0.60;;;;;;;19.50;44.50;95700.41;4356357;32;20211;-67
2023/05/31 08:59:08;;;;;;;0.40;0.40;;;;;;;19.53;44.51;95696.25;4356482;32;20189;-66
2023/05/31 09:01:35;;;;;;;0.40;0.40;;;;;;;19.55;44.70;95699.38;4366711;32;20243;-66
2023/05/31 09:04:01;;;;;;;0.40;0.40;;;;;;;19.62;44.20;95696.88;4369519;32;20228;-66
2023/05/31 09:06:26;;;;;;;0.93;0.77;;;;;;;19.75;43.29;95695.72;4356032;32;20244;-66
2023/05/31 09:08:51;;;;;;;1.10;0.50;;;;;;;19.82;43.24;95695.91;4366311;32;20220;-67
2023/05/31 09:11:17;;;;;;;2.10;1.43;;;;;;;19.91;43.03;95701.16;4351261;32;20210;-67
2023/05/31 09:13:42;;;;;;;0.50;0.50;;;;;;;19.98;42.60;95703.25;4344342;32;20239;-66
2023/05/31 09:16:08;;;;;;;0.70;0.70;;;;;;;19.96;42.66;95694.72;4359826;32;20296;-66
2023/05/31 09:18:38;;;;;;;0.63;0.63;;;;;;;19.99;42.78;95699.44;4369981;32;20185;-66
2023/05/31 09:21:11;;;;;;;0.80;0.80;;;;;;;20.09;42.31;95690.88;4346734;32;20193;-66
2023/05/31 09:23:37;;;;;;;1.10;1.00;;;;;;;20.24;41.99;95703.56;4358836;32;20181;-67
2023/05/31 09:26:05;;;;;;;14.53;1.07;;;;;;;20.30;41.56;95701.41;4351334;32;20223;-67
2023/05/31 09:28:31;;;;;;;0.63;0.63;;;;;;;20.23;40.99;95694.72;4359195;32;20224;-66
2023/05/31 09:31:03;;;;;;;1.03;0.90;;;;;;;20.12;41.71;95703.66;4356101;32;20184;-67
2023/05/31 09:33:40;;;;;;;3.40;0.60;;;;;;;20.09;41.46;95693.56;4372466;32;20193;-66
2023/05/31 09:36:06;;;;;;;1.07;0.57;;;;;;;20.12;41.04;95692.88;4352340;32;20197;-67
2023/05/31 09:38:33;;;;;;;0.57;0.57;;;;;;;20.22;41.27;95698.53;4375607;32;20197;-66
2023/05/31 09:41:15;;;;;;;1.10;1.10;;;;;;;20.29;41.55;95692.53;4352153;32;20205;-66
2023/05/31 09:43:42;;;;;;;0.50;0.50;;;;;;;20.36;40.30;95698.12;4362314;32;20248;-66
2023/05/31 09:46:18;;;;;;;2.10;1.20;;;;;;;20.50;39.58;95689.63;4359685;32;20231;-67
2023/05/31 09:48:44;;;;;;;0.60;0.60;;;;;;;20.47;40.09;95699.19;4348103;32;20185;-67
2023/05/31 09:51:12;;;;;;;0.83;0.67;;;;;;;20.56;40.71;95686.34;4362730;32;20188;-67
2023/05/31 09:53:43;;;;;;;1.17;1.17;;;;;;;20.63;39.75;95690.31;4370139;32;20197;-67
2023/05/31 09:56:17;;;;;;;0.80;0.77;;;;;;;20.81;40.28;95691.53;4365876;32;20268;-67
2023/05/31 09:58:42;;;;;;;0.77;0.77;;;;;;;20.79;40.88;95694.56;4365132;32;20255;-67
2023/05/31 10:01:09;;;;;;;1.03;0.93;;;;;;;20.98;40.86;95685.78;4359800;32;20342;-67
2023/05/31 10:03:34;;;;;;;1.60;1.10;;;;;;;21.16;39.19;95683.50;4363430;32;20189;-67
2023/05/31 10:06:00;;;;;;;0.93;0.70;;;;;;;21.10;38.99;95680.28;4365910;32;20196;-67
2023/05/31 10:08:26;;;;;;;0.67;0.67;;;;;;;21.04;38.57;95683.59;4365738;32;20310;-67
2023/05/31 10:10:55;;;;;;;2.13;1.67;;;;;;;21.00;39.50;95688.13;4368431;32;20240;-67
2023/05/31 10:13:23;;;;;;;0.37;0.37;;;;;;;21.06;39.40;95687.50;4359660;32;20200;-66
2023/05/31 10:15:52;;;;;;;0.50;0.50;;;;;;;21.07;39.44;95689.06;4361802;32;20209;-66
2023/05/31 10:18:21;;;;;;;0.93;0.63;;;;;;;20.92;39.36;95684.50;4360876;32;20189;-67
2023/05/31 10:20:52;;;;;;;1.33;0.67;;;;;;;20.84;39.40;95680.84;4339992;32;20196;-67
2023/05/31 10:23:22;;;;;;;0.40;0.40;;;;;;;20.88;38.62;95676.31;4372822;32;20193;-67
2023/05/31 10:26:09;;;;;;;0.90;0.90;;;;;;;21.00;38.48;95672.72;4353172;32;20201;-66
2023/05/31 10:28:43;;;;;;;0.63;0.63;;;;;;;21.14;37.79;95678.44;4349497;32;20189;-67
2023/05/31 10:31:11;;;;;;;0.50;0.50;;;;;;;21.18;37.46;95663.13;4350428;32;20252;-67
2023/05/31 10:33:41;;;;;;;1.00;1.00;;;;;;;21.27;37.83;95671.03;4360264;32;20185;-67
2023/05/31 10:36:07;;;;;;;0.70;0.70;;;;;;;21.24;38.14;95672.50;4356946;32;20216;-67
2023/05/31 10:38:40;;;;;;;0.00;0.00;;;;;;;21.25;37.96;95667.91;4346343;32;20194;-66
2023/05/31 10:41:14;;;;;;;0.40;0.40;;;;;;;21.37;36.94;95665.09;4354134;32;20185;-67
2023/05/31 10:43:45;;;;;;;0.83;0.83;;;;;;;21.39;36.78;95662.03;4350825;32;20189;-67
2023/05/31 10:46:18;;;;;;;0.67;0.67;;;;;;;21.43;37.34;95673.69;4359096;32;20189;-67
2023/05/31 10:48:52;;;;;;;0.70;0.70;;;;;;;21.44;36.78;95662.53;4363511;32;20193;-66
2023/05/31 10:51:18;;;;;;;0.73;0.73;;;;;;;21.47;36.43;95669.13;4351707;32;20218;-66
2023/05/31 10:53:48;;;;;;;0.40;0.40;;;;;;;21.34;36.55;95670.41;4361428;32;20189;-67
2023/05/31 10:56:14;;;;;;;1.33;0.73;;;;;;;21.21;36.58;95665.13;4354404;32;20193;-66
2023/05/31 10:58:53;;;;;;;0.77;0.63;;;;;;;21.26;36.92;95654.06;4345479;32;20223;-66
2023/05/31 11:01:20;;;;;;;2.67;1.50;;;;;;;21.27;37.09;95650.22;4355718;32;20192;-64
2023/05/31 11:03:50;;;;;;;0.47;0.47;;;;;;;21.27;37.66;95652.91;4362014;32;20195;-67
2023/05/31 11:06:22;;;;;;;0.33;0.33;;;;;;;21.40;37.01;95650.09;4356350;32;20189;-67
2023/05/31 11:08:59;;;;;;;2.23;0.63;;;;;;;21.41;37.41;95640.84;4356413;32;20181;-67
2023/05/31 11:11:26;;;;;;;0.67;0.67;;;;;;;21.52;37.29;95652.66;4328549;32;20194;-67
2023/05/31 11:14:25;;;;;;;0.37;0.37;;;;;;;21.45;36.46;95652.50;4324520;32;20460;-66
2023/05/31 11:16:52;;;;;;;0.70;0.70;;;;;;;21.42;36.17;95650.50;4326647;32;20193;-66
2023/05/31 11:19:20;;;;;;;1.00;0.80;;;;;;;21.54;36.11;95658.50;4339572;32;20216;-67
2023/05/31 11:21:54;;;;;;;0.50;0.50;;;;;;;21.55;35.08;95644.62;4337810;32;20252;-66
2023/05/31 11:24:37;;;;;;;0.60;0.60;;;;;;;21.53;35.67;95651.53;4329465;33;20198;-66
2023/05/31 11:27:05;;;;;;;0.40;0.40;;;;;;;21.59;36.45;95644.72;4325352;32;20252;-67
2023/05/31 11:29:48;;;;;;;0.57;0.57;;;;;;;21.51;37.09;95643.00;4326787;32;20198;-66
2023/05/31 11:32:15;;;;;;;3.90;1.43;;;;;;;21.67;37.50;95641.00;4326342;32;20193;-66
2023/05/31 11:35:02;;;;;;;0.90;0.90;;;;;;;21.62;37.76;95635.88;4330670;32;20208;-66